createdAt,value
2019-06-25T00:00:55.668Z,77.06
2019-06-25T00:01:55.643Z,77.26
2019-06-25T00:02:55.649Z,77.11
2019-06-25T00:03:55.566Z,77.36
2019-06-25T00:04:55.535Z,76.62
2019-06-25T00:05:55.496Z,76.81
2019-06-25T00:06:55.463Z,77.29
2019-06-25T00:07:55.464Z,76.72
2019-06-25T00:08:55.389Z,77.16
2019-06-25T00:09:55.364Z,78.13
2019-06-25T00:10:55.325Z,78.03
2019-06-25T00:11:55.296Z,77.84
2019-06-25T00:12:55.263Z,78.03
2019-06-25T00:13:55.258Z,78.71
2019-06-25T00:14:55.181Z,78.71
2019-06-25T00:15:55.159Z,79.00
2019-06-25T00:16:55.125Z,78.23
2019-06-25T00:17:55.086Z,79.10
2019-06-25T00:18:55.050Z,78.23
2019-06-25T00:19:55.050Z,79.00
2019-06-25T00:20:54.974Z,78.71
2019-06-25T00:21:54.949Z,78.71
2019-06-25T00:22:54.949Z,79.49
2019-06-25T00:23:54.912Z,79.35
2019-06-25T00:24:54.844Z,79.49
2019-06-25T00:25:54.801Z,79.45
2019-06-25T00:26:54.771Z,79.74
2019-06-25T00:27:54.738Z,80.22
2019-06-25T00:28:54.730Z,80.13
2019-06-25T00:29:56.416Z,79.84
2019-06-25T00:30:54.666Z,79.64
2019-06-25T00:31:54.591Z,80.03
2019-06-25T00:32:54.563Z,79.45
2019-06-25T00:33:54.563Z,79.45
2019-06-25T00:34:54.495Z,79.45
2019-06-25T00:35:54.463Z,79.45
2019-06-25T00:36:54.426Z,78.87
2019-06-25T00:37:54.387Z,79.55
2019-06-25T00:38:54.361Z,79.64
2019-06-25T00:39:54.343Z,79.25
2019-06-25T00:40:54.280Z,78.97
2019-06-25T00:41:54.250Z,79.45
2019-06-25T00:42:54.217Z,79.64
2019-06-25T00:43:54.183Z,79.25
2019-06-25T00:44:54.183Z,80.03
2019-06-25T00:45:57.156Z,78.87
2019-06-25T00:46:54.073Z,79.25
2019-06-25T00:47:54.044Z,79.64
2019-06-25T00:48:54.010Z,79.45
2019-06-25T00:49:53.999Z,79.35
2019-06-25T00:50:53.934Z,79.84
2019-06-25T00:51:53.902Z,79.41
2019-06-25T00:52:53.869Z,79.50
2019-06-25T00:53:53.850Z,80.96
2019-06-25T00:54:53.839Z,80.57
2019-06-25T00:55:53.770Z,80.19
2019-06-25T00:56:53.731Z,79.50
2019-06-25T00:57:53.690Z,79.41
2019-06-25T00:58:53.656Z,79.02
2019-06-25T00:59:53.619Z,79.99
2019-06-25T01:00:53.619Z,79.50
2019-06-25T01:01:53.560Z,81.05
2019-06-25T01:02:53.522Z,79.60
2019-06-25T01:03:53.480Z,80.19
2019-06-25T01:04:53.446Z,79.60
2019-06-25T01:05:53.462Z,81.05
2019-06-25T01:06:53.383Z,80.28
2019-06-25T01:07:53.349Z,80.19
2019-06-25T01:08:53.321Z,79.41
2019-06-25T01:09:53.274Z,79.50
2019-06-25T01:10:53.241Z,80.77
2019-06-25T01:11:53.232Z,81.25
2019-06-25T01:12:53.171Z,81.73
2019-06-25T01:13:53.174Z,81.15
2019-06-25T01:14:53.101Z,82.08
2019-06-25T01:15:53.075Z,81.79
2019-06-25T01:16:53.037Z,81.50
2019-06-25T01:17:52.995Z,80.92
2019-06-25T01:18:52.958Z,81.30
2019-06-25T01:19:52.967Z,83.25
2019-06-25T01:20:52.931Z,84.75
2019-06-25T01:21:52.857Z,85.33
2019-06-25T01:22:52.822Z,84.66
2019-06-25T01:23:52.797Z,84.46
2019-06-25T01:24:52.781Z,86.16
2019-06-25T01:25:52.718Z,87.03
2019-06-25T01:26:52.717Z,87.71
2019-06-25T01:27:52.653Z,88.09
2019-06-25T01:28:52.615Z,88.19
2019-06-25T01:29:52.576Z,89.01
2019-06-25T01:30:52.540Z,89.50
2019-06-25T01:31:52.545Z,90.85
2019-06-25T01:32:52.471Z,88.73
2019-06-25T01:33:52.439Z,89.55
2019-06-25T01:34:52.450Z,87.81
2019-06-25T01:35:52.366Z,88.29
2019-06-25T01:36:52.329Z,88.87
2019-06-25T01:37:52.299Z,89.65
2019-06-25T01:38:52.265Z,88.20
2019-06-25T01:39:52.258Z,88.10
2019-06-25T01:40:52.226Z,86.94
2019-06-25T01:41:52.163Z,88.20
2019-06-25T01:42:52.117Z,89.31
2019-06-25T01:43:52.084Z,87.27
2019-06-25T01:44:52.050Z,87.13
2019-06-25T01:45:52.056Z,86.11
2019-06-25T01:46:52.221Z,86.99
2019-06-25T01:47:51.947Z,85.25
2019-06-25T01:48:51.913Z,84.32
2019-06-25T01:49:51.870Z,84.52
2019-06-25T01:50:51.838Z,84.52
2019-06-25T01:51:51.840Z,84.52
2019-06-25T01:52:51.771Z,84.71
2019-06-25T01:53:51.764Z,84.80
2019-06-25T01:54:51.691Z,83.36
2019-06-25T01:55:51.661Z,84.13
2019-06-25T01:56:51.623Z,83.16
2019-06-25T01:57:51.597Z,85.19
2019-06-25T01:58:51.557Z,85.29
2019-06-25T01:59:51.560Z,84.90
2019-06-25T02:00:51.497Z,85.19
2019-06-25T02:01:51.506Z,84.52
2019-06-25T02:02:51.412Z,85.25
2019-06-25T02:03:51.377Z,84.28
2019-06-25T02:04:51.346Z,83.70
2019-06-25T02:05:51.362Z,84.13
2019-06-25T02:06:51.281Z,84.09
2019-06-25T02:07:51.239Z,85.58
2019-06-25T02:08:51.201Z,83.74
2019-06-25T02:09:51.172Z,84.71
2019-06-25T02:10:51.140Z,83.94
2019-06-25T02:11:51.141Z,84.22
2019-06-25T02:12:51.074Z,83.26
2019-06-25T02:13:51.024Z,83.06
2019-06-25T02:14:50.988Z,83.74
2019-06-25T02:15:50.952Z,82.97
2019-06-25T02:16:50.917Z,83.36
2019-06-25T02:17:50.924Z,83.84
2019-06-25T02:18:50.853Z,83.16
2019-06-25T02:19:50.818Z,82.58
2019-06-25T02:20:50.783Z,82.20
2019-06-25T02:21:50.763Z,82.29
2019-06-25T02:22:50.732Z,83.11
2019-06-25T02:23:50.735Z,82.10
2019-06-25T02:24:50.641Z,81.23
2019-06-25T02:25:50.604Z,81.07
2019-06-25T02:26:50.563Z,80.49
2019-06-25T02:27:50.581Z,80.40
2019-06-25T02:28:50.526Z,81.37
2019-06-25T02:29:50.471Z,81.37
2019-06-25T02:31:06.834Z,81.37
2019-06-25T02:31:50.402Z,81.56
2019-06-25T02:32:50.358Z,83.30
2019-06-25T02:33:50.357Z,82.48
2019-06-25T02:34:50.290Z,82.20
2019-06-25T02:35:50.293Z,83.06
2019-06-25T02:36:50.211Z,84.03
2019-06-25T02:37:50.189Z,85.29
2019-06-25T02:38:50.150Z,84.52
2019-06-25T02:39:50.105Z,82.20
2019-06-25T02:40:50.073Z,85.19
2019-06-25T02:41:50.080Z,84.61
2019-06-25T02:42:50.017Z,84.71
2019-06-25T02:43:49.972Z,84.57
2019-06-25T02:44:49.937Z,86.89
2019-06-25T02:45:49.894Z,84.38
2019-06-25T02:46:49.865Z,85.59
2019-06-25T02:47:49.859Z,83.03
2019-06-25T02:48:49.789Z,83.70
2019-06-25T02:49:49.759Z,84.77
2019-06-25T02:50:49.727Z,85.63
2019-06-25T02:51:49.689Z,85.93
2019-06-25T02:52:49.686Z,86.41
2019-06-25T02:53:49.624Z,88.05
2019-06-25T02:54:49.574Z,85.59
2019-06-25T02:55:49.550Z,85.98
2019-06-25T02:56:49.513Z,84.72
2019-06-25T02:57:49.500Z,85.49
2019-06-25T02:58:49.465Z,85.40
2019-06-25T02:59:49.404Z,84.38
2019-06-25T03:00:49.368Z,84.67
2019-06-25T03:01:49.336Z,84.77
2019-06-25T03:02:49.334Z,84.57
2019-06-25T03:03:49.269Z,84.67
2019-06-25T03:04:49.264Z,84.67
2019-06-25T03:05:49.186Z,84.47
2019-06-25T03:06:49.155Z,84.77
2019-06-25T03:07:49.126Z,84.47
2019-06-25T03:08:49.080Z,85.25
2019-06-25T03:09:49.087Z,85.35
2019-06-25T03:10:49.018Z,84.47
2019-06-25T03:11:48.980Z,84.28
2019-06-25T03:12:48.941Z,86.11
2019-06-25T03:13:48.910Z,84.77
2019-06-25T03:14:48.872Z,83.99
2019-06-25T03:15:48.871Z,83.12
2019-06-25T03:16:48.810Z,82.83
2019-06-25T03:17:48.793Z,83.31
2019-06-25T03:18:48.727Z,83.26
2019-06-25T03:19:48.690Z,82.93
2019-06-25T03:20:48.681Z,84.52
2019-06-25T03:21:48.627Z,83.03
2019-06-25T03:22:48.626Z,85.93
2019-06-25T03:23:48.558Z,82.06
2019-06-25T03:24:48.519Z,83.36
2019-06-25T03:25:48.480Z,83.31
2019-06-25T03:26:48.440Z,83.51
2019-06-25T03:27:48.412Z,81.32
2019-06-25T03:28:48.409Z,81.23
2019-06-25T03:29:48.337Z,81.81
2019-06-25T03:30:48.331Z,82.20
2019-06-25T03:32:06.417Z,82.29
2019-06-25T03:32:48.231Z,81.32
2019-06-25T03:33:48.219Z,81.13
2019-06-25T03:34:48.165Z,81.13
2019-06-25T03:35:48.167Z,80.84
2019-06-25T03:36:48.097Z,82.48
2019-06-25T03:37:48.063Z,82.10
2019-06-25T03:38:48.020Z,82.29
2019-06-25T03:39:47.984Z,84.52
2019-06-25T03:40:47.947Z,83.80
2019-06-25T03:41:47.956Z,81.57
2019-06-25T03:42:47.881Z,82.58
2019-06-25T03:43:47.840Z,83.55
2019-06-25T03:44:47.810Z,83.55
2019-06-25T03:45:47.784Z,83.31
2019-06-25T03:46:47.749Z,83.22
2019-06-25T03:47:47.740Z,82.87
2019-06-25T03:48:47.673Z,83.55
2019-06-25T03:49:47.628Z,84.32
2019-06-25T03:50:47.590Z,82.48
2019-06-25T03:51:47.554Z,83.45
2019-06-25T03:52:47.522Z,84.42
2019-06-25T03:53:47.531Z,85.39
2019-06-25T03:54:47.459Z,84.90
2019-06-25T03:55:47.421Z,84.61
2019-06-25T03:56:47.389Z,82.29
2019-06-25T03:57:47.349Z,83.06
2019-06-25T03:58:47.305Z,84.71
2019-06-25T03:59:47.469Z,81.52
2019-06-25T04:00:47.244Z,82.58
2019-06-25T04:01:47.204Z,82.58
2019-06-25T04:02:47.205Z,81.42
2019-06-25T04:03:47.132Z,81.32
2019-06-25T04:04:47.102Z,80.36
2019-06-25T04:05:47.424Z,81.04
2019-06-25T04:06:47.033Z,81.17
2019-06-25T04:07:47.028Z,81.56
2019-06-25T04:08:46.968Z,79.52
2019-06-25T04:09:46.927Z,80.79
2019-06-25T04:10:46.886Z,81.17
2019-06-25T04:11:46.850Z,79.95
2019-06-25T04:12:46.845Z,80.15
2019-06-25T04:13:46.788Z,78.89
2019-06-25T04:14:46.755Z,79.76
2019-06-25T04:15:46.712Z,79.95
2019-06-25T04:16:46.676Z,78.41
2019-06-25T04:17:46.682Z,77.63
2019-06-25T04:18:46.612Z,79.41
2019-06-25T04:19:46.573Z,79.50
2019-06-25T04:20:46.545Z,78.92
2019-06-25T04:21:46.505Z,78.44
2019-06-25T04:22:46.516Z,79.12
2019-06-25T04:23:46.429Z,77.47
2019-06-25T04:24:46.400Z,77.76
2019-06-25T04:25:46.371Z,77.96
2019-06-25T04:26:46.362Z,79.50
2019-06-25T04:27:46.298Z,78.34
2019-06-25T04:28:46.267Z,77.86
2019-06-25T04:29:46.222Z,76.70
2019-06-25T04:30:47.128Z,77.80
2019-06-25T04:31:46.189Z,77.03
2019-06-25T04:32:46.132Z,76.68
2019-06-25T04:33:46.120Z,76.91
2019-06-25T04:34:46.047Z,74.87
2019-06-25T04:35:46.012Z,74.29
2019-06-25T04:36:46.007Z,74.91
2019-06-25T04:37:45.979Z,74.40
2019-06-25T04:38:45.912Z,72.55
2019-06-25T04:39:45.882Z,71.48
2019-06-25T04:40:45.843Z,72.17
2019-06-25T04:41:45.807Z,72.45
2019-06-25T04:42:45.801Z,73.91
2019-06-25T04:43:45.738Z,73.82
2019-06-25T04:44:45.701Z,73.30
2019-06-25T04:45:45.674Z,73.88
2019-06-25T04:46:45.640Z,74.17
2019-06-25T04:47:45.632Z,75.59
2019-06-25T04:48:45.564Z,73.65
2019-06-25T04:49:45.539Z,74.19
2019-06-25T04:50:45.502Z,75.94
2019-06-25T04:51:45.468Z,77.20
2019-06-25T04:52:45.477Z,76.42
2019-06-25T04:53:45.395Z,76.81
2019-06-25T04:54:45.365Z,76.56
2019-06-25T04:55:55.392Z,74.43
2019-06-25T04:56:45.302Z,75.01
2019-06-25T04:57:45.266Z,75.85
2019-06-25T04:58:45.263Z,72.78
2019-06-25T04:59:45.189Z,73.95
2019-06-25T05:00:45.159Z,71.66
2019-06-25T05:01:45.130Z,71.78
2019-06-25T05:02:50.010Z,72.83
2019-06-25T05:03:45.055Z,69.56
2019-06-25T05:04:45.052Z,67.64
2019-06-25T05:05:45.122Z,66.63
2019-06-25T05:06:44.954Z,64.29
2019-06-25T05:07:44.925Z,65.72
2019-06-25T05:08:44.894Z,63.09
2019-06-25T05:09:44.857Z,62.85
2019-06-25T05:10:44.862Z,64.87
2019-06-25T05:11:44.783Z,65.72
2019-06-25T05:12:44.754Z,67.18
2019-06-25T05:13:44.723Z,66.66
2019-06-25T05:14:44.696Z,68.42
2019-06-25T05:15:44.662Z,68.77
2019-06-25T05:16:44.663Z,70.43
2019-06-25T05:17:44.596Z,68.45
2019-06-25T05:18:44.558Z,69.68
2019-06-25T05:19:44.544Z,71.50
2019-06-25T05:20:44.497Z,71.01
2019-06-25T05:21:44.499Z,73.11
2019-06-25T05:22:44.440Z,73.79
2019-06-25T05:23:44.394Z,73.60
2019-06-25T05:24:44.362Z,73.37
2019-06-25T05:25:44.567Z,72.59
2019-06-25T05:26:44.305Z,74.34
2019-06-25T05:27:44.306Z,76.09
2019-06-25T05:28:44.268Z,73.37
2019-06-25T05:29:44.199Z,75.47
2019-06-25T05:30:44.167Z,75.02
2019-06-25T05:31:44.159Z,74.79
2019-06-25T05:32:44.096Z,75.21
2019-06-25T05:33:44.079Z,75.70
2019-06-25T05:34:44.039Z,73.52
2019-06-25T05:35:44.235Z,74.60
2019-06-25T05:36:43.963Z,74.24
2019-06-25T05:37:43.929Z,72.76
2019-06-25T05:38:43.911Z,72.37
2019-06-25T05:39:43.876Z,71.50
2019-06-25T05:40:43.838Z,73.15
2019-06-25T05:41:43.842Z,72.43
2019-06-25T05:42:43.782Z,73.46
2019-06-25T05:43:43.731Z,73.85
2019-06-25T05:44:43.706Z,73.85
2019-06-25T05:45:45.551Z,75.31
2019-06-25T05:46:43.635Z,75.51
2019-06-25T05:47:43.641Z,75.18
2019-06-25T05:48:43.578Z,74.24
2019-06-25T05:49:43.549Z,75.21
2019-06-25T05:50:43.506Z,75.51
2019-06-25T05:51:43.485Z,74.34
2019-06-25T05:52:43.632Z,75.89
2019-06-25T05:53:43.458Z,75.02
2019-06-25T05:54:43.377Z,74.30
2019-06-25T05:55:43.575Z,75.85
2019-06-25T05:56:43.533Z,75.04
2019-06-25T05:57:43.602Z,75.18
2019-06-25T05:58:43.366Z,76.50
2019-06-25T05:59:43.275Z,76.31
2019-06-25T06:00:43.180Z,75.72
2019-06-25T06:01:43.141Z,76.79
2019-06-25T06:02:43.108Z,76.60
2019-06-25T06:03:43.598Z,75.85
2019-06-25T06:04:43.038Z,77.02
2019-06-25T06:05:43.250Z,75.57
2019-06-25T06:06:42.977Z,74.24
2019-06-25T06:07:42.935Z,75.64
2019-06-25T06:08:42.902Z,73.57
2019-06-25T06:09:43.143Z,69.94
2019-06-25T06:10:43.034Z,67.86
2019-06-25T06:11:43.074Z,67.44
2019-06-25T06:12:42.786Z,66.60
2019-06-25T06:13:42.951Z,64.84
2019-06-25T06:14:42.705Z,64.94
2019-06-25T06:15:43.220Z,65.30
2019-06-25T06:16:42.760Z,63.57
2019-06-25T06:17:42.651Z,62.23
2019-06-25T06:18:42.579Z,62.23
2019-06-25T06:19:42.542Z,62.58
2019-06-25T06:20:42.509Z,63.46
2019-06-25T06:21:42.516Z,61.99
2019-06-25T06:22:42.452Z,61.93
2019-06-25T06:23:42.411Z,65.59
2019-06-25T06:24:42.380Z,65.06
2019-06-25T06:25:43.365Z,63.21
2019-06-25T06:26:42.348Z,63.21
2019-06-25T06:27:42.290Z,64.54
2019-06-25T06:28:42.258Z,63.12
2019-06-25T06:29:42.366Z,66.21
2019-06-25T06:30:42.225Z,66.93
2019-06-25T06:31:42.155Z,65.85
2019-06-25T06:32:42.125Z,65.98
2019-06-25T06:33:42.094Z,64.68
2019-06-25T06:34:42.321Z,64.48
2019-06-25T06:35:42.458Z,65.53
2019-06-25T06:36:42.039Z,65.63
2019-06-25T06:37:42.286Z,66.63
2019-06-25T06:38:42.063Z,66.14
2019-06-25T06:39:41.931Z,64.87
2019-06-25T06:40:41.881Z,64.87
2019-06-25T06:41:41.897Z,67.25
2019-06-25T06:42:41.813Z,66.47
2019-06-25T06:43:42.040Z,64.71
2019-06-25T06:44:41.743Z,64.32
2019-06-25T06:45:41.713Z,64.45
2019-06-25T06:46:41.766Z,62.79
2019-06-25T06:47:41.656Z,62.85
2019-06-25T06:48:41.626Z,63.48
2019-06-25T06:49:41.629Z,66.76
2019-06-25T06:50:41.576Z,63.73
2019-06-25T06:51:41.581Z,63.57
2019-06-25T06:52:41.492Z,62.26
2019-06-25T06:53:41.468Z,61.31
2019-06-25T06:54:41.440Z,63.01
2019-06-25T06:55:41.450Z,62.94
2019-06-25T06:56:41.405Z,61.86
2019-06-25T06:57:41.335Z,61.74
2019-06-25T06:58:41.660Z,63.54
2019-06-25T06:59:41.279Z,63.34
2019-06-25T07:00:41.285Z,65.09
2019-06-25T07:01:41.487Z,62.78
2019-06-25T07:02:41.190Z,63.43
2019-06-25T07:03:52.343Z,60.25
2019-06-25T07:04:41.127Z,59.05
2019-06-25T07:05:41.218Z,58.89
2019-06-25T07:06:41.059Z,61.11
2019-06-25T07:07:41.233Z,62.71
2019-06-25T07:08:41.008Z,59.94
2019-06-25T07:09:40.966Z,61.34
2019-06-25T07:10:40.941Z,60.16
2019-06-25T07:11:40.951Z,61.60
2019-06-25T07:12:40.887Z,60.99
2019-06-25T07:13:40.849Z,60.82
2019-06-25T07:14:40.829Z,62.78
2019-06-25T07:15:40.784Z,62.09
2019-06-25T07:16:40.763Z,61.64
2019-06-25T07:17:40.760Z,62.59
2019-06-25T07:18:40.724Z,63.28
2019-06-25T07:19:40.676Z,63.01
2019-06-25T07:20:40.645Z,62.78
2019-06-25T07:21:40.610Z,60.29
2019-06-25T07:22:40.578Z,60.13
2019-06-25T07:23:40.583Z,62.72
2019-06-25T07:24:40.515Z,62.98
2019-06-25T07:25:40.490Z,61.80
2019-06-25T07:26:40.619Z,62.12
2019-06-25T07:27:43.142Z,61.47
2019-06-25T07:28:40.398Z,61.27
2019-06-25T07:29:40.402Z,59.77
2019-06-25T07:30:40.370Z,61.73
2019-06-25T07:31:40.468Z,61.18
2019-06-25T07:32:42.340Z,61.86
2019-06-25T07:33:40.250Z,61.60
2019-06-25T07:34:40.223Z,62.02
2019-06-25T07:35:40.184Z,61.27
2019-06-25T07:36:40.259Z,61.27
2019-06-25T07:37:40.124Z,61.77
2019-06-25T07:38:40.098Z,62.16
2019-06-25T07:39:40.069Z,62.78
2019-06-25T07:40:40.039Z,61.07
2019-06-25T07:41:40.085Z,62.22
2019-06-25T07:42:39.975Z,61.40
2019-06-25T07:43:39.951Z,60.05
2019-06-25T07:44:39.917Z,57.73
2019-06-25T07:45:39.888Z,59.39
2019-06-25T07:46:40.263Z,56.76
2019-06-25T07:47:39.837Z,57.25
2019-06-25T07:48:39.792Z,56.10
2019-06-25T07:49:39.771Z,57.62
2019-06-25T07:50:39.751Z,58.09
2019-06-25T07:51:39.746Z,61.43
2019-06-25T07:52:39.672Z,59.30
2019-06-25T07:53:39.883Z,60.02
2019-06-25T07:54:39.624Z,59.26
2019-06-25T07:55:39.604Z,58.83
2019-06-25T07:56:39.581Z,57.84
2019-06-25T07:57:39.785Z,57.03
2019-06-25T07:58:39.662Z,57.98
2019-06-25T07:59:39.464Z,56.87
2019-06-25T08:00:39.689Z,60.41
2019-06-25T08:01:39.629Z,58.74
2019-06-25T08:02:39.407Z,58.96
2019-06-25T08:03:39.662Z,58.25
2019-06-25T08:04:39.330Z,59.94
2019-06-25T08:05:39.398Z,58.89
2019-06-25T08:06:39.264Z,59.09
2019-06-25T08:07:39.268Z,56.76
2019-06-25T08:08:39.250Z,59.22
2019-06-25T08:09:39.544Z,58.04
2019-06-25T08:10:41.740Z,59.71
2019-06-25T08:11:39.118Z,56.80
2019-06-25T08:12:39.126Z,57.97
2019-06-25T08:13:39.058Z,59.53
2019-06-25T08:14:39.292Z,62.73
2019-06-25T08:15:39.021Z,62.24
2019-06-25T08:16:39.136Z,59.92
2019-06-25T08:17:39.624Z,58.54
2019-06-25T08:18:38.930Z,60.41
2019-06-25T08:19:38.885Z,59.62
2019-06-25T08:20:38.865Z,59.36
2019-06-25T08:21:38.832Z,59.28
2019-06-25T08:22:38.801Z,59.34
2019-06-25T08:23:38.815Z,56.98
2019-06-25T08:24:38.750Z,57.57
2019-06-25T08:25:38.722Z,56.59
2019-06-25T08:26:38.692Z,58.92
2019-06-25T08:27:39.239Z,56.04
2019-06-25T08:28:38.630Z,57.66
2019-06-25T08:29:38.640Z,58.86
2019-06-25T08:30:38.601Z,58.28
2019-06-25T08:31:38.551Z,58.19
2019-06-25T08:32:38.518Z,59.90
2019-06-25T08:33:38.490Z,62.45
2019-06-25T08:34:42.302Z,62.38
2019-06-25T08:35:38.471Z,61.80
2019-06-25T08:36:38.412Z,66.17
2019-06-25T08:37:38.387Z,63.98
2019-06-25T08:38:38.358Z,61.89
2019-06-25T08:39:38.393Z,60.81
2019-06-25T08:40:38.333Z,62.54
2019-06-25T08:41:38.273Z,60.93
2019-06-25T08:42:38.239Z,60.47
2019-06-25T08:43:38.252Z,59.22
2019-06-25T08:44:38.192Z,57.22
2019-06-25T08:45:38.201Z,59.61
2019-06-25T08:46:38.132Z,56.83
2019-06-25T08:47:38.110Z,56.66
2019-06-25T08:48:38.139Z,56.98
2019-06-25T08:49:38.082Z,57.90
2019-06-25T08:50:38.058Z,56.42
2019-06-25T08:51:37.988Z,56.15
2019-06-25T08:52:37.966Z,56.81
2019-06-25T08:53:37.937Z,56.71
2019-06-25T08:54:37.907Z,58.69
2019-06-25T08:55:37.934Z,59.34
2019-06-25T08:56:37.859Z,58.00
2019-06-25T08:57:37.835Z,57.92
2019-06-25T08:58:37.817Z,56.37
2019-06-25T08:59:38.004Z,58.01
2019-06-25T09:00:37.745Z,58.04
2019-06-25T09:01:37.767Z,56.76
2019-06-25T09:02:37.701Z,58.40
2019-06-25T09:03:37.670Z,59.15
2019-06-25T09:04:37.640Z,59.27
2019-06-25T09:05:37.633Z,56.52
2019-06-25T09:06:37.596Z,57.01
2019-06-25T09:07:37.605Z,56.25
2019-06-25T09:08:37.547Z,55.46
2019-06-25T09:09:37.531Z,55.58
2019-06-25T09:10:37.499Z,54.11
2019-06-25T09:11:37.462Z,54.64
2019-06-25T09:12:37.470Z,55.41
2019-06-25T09:13:37.449Z,57.49
2019-06-25T09:14:37.386Z,59.39
2019-06-25T09:15:37.366Z,59.30
2019-06-25T09:16:37.348Z,60.74
2019-06-25T09:17:37.307Z,61.47
2019-06-25T09:18:37.284Z,62.98
2019-06-25T09:19:49.791Z,63.34
2019-06-25T09:20:37.231Z,65.39
2019-06-25T09:21:37.202Z,64.41
2019-06-25T09:22:37.171Z,65.91
2019-06-25T09:23:37.142Z,65.81
2019-06-25T09:24:37.145Z,66.99
2019-06-25T09:25:37.099Z,65.81
2019-06-25T09:26:37.058Z,63.92
2019-06-25T09:27:37.049Z,65.39
2019-06-25T09:28:37.005Z,66.99
2019-06-25T09:29:37.014Z,64.51
2019-06-25T09:30:37.486Z,64.58
2019-06-25T09:31:36.924Z,66.86
2019-06-25T09:32:36.884Z,65.75
2019-06-25T09:33:36.881Z,68.10
2019-06-25T09:34:36.838Z,65.75
2019-06-25T09:35:36.826Z,65.78
2019-06-25T09:36:36.765Z,64.48
2019-06-25T09:37:36.737Z,67.44
2019-06-25T09:38:36.710Z,66.30
2019-06-25T09:39:36.682Z,66.79
2019-06-25T09:40:36.711Z,65.26
2019-06-25T09:41:36.627Z,66.63
2019-06-25T09:42:36.595Z,65.29
2019-06-25T09:43:36.559Z,64.80
2019-06-25T09:44:36.527Z,64.76
2019-06-25T09:45:36.498Z,63.52
2019-06-25T09:46:36.500Z,62.96
2019-06-25T09:47:40.190Z,63.39
2019-06-25T09:48:36.454Z,61.84
2019-06-25T09:49:36.383Z,60.00
2019-06-25T09:50:36.354Z,60.23
2019-06-25T09:51:36.333Z,57.74
2019-06-25T09:52:36.299Z,60.39
2019-06-25T09:53:36.306Z,60.30
2019-06-25T09:54:36.256Z,59.38
2019-06-25T09:55:36.211Z,57.31
2019-06-25T09:56:36.184Z,59.38
2019-06-25T09:57:36.157Z,57.71
2019-06-25T09:58:36.126Z,59.88
2019-06-25T09:59:36.157Z,60.57
2019-06-25T10:00:36.088Z,59.31
2019-06-25T10:01:45.340Z,61.71
2019-06-25T10:02:36.032Z,60.13
2019-06-25T10:03:36.032Z,59.34
2019-06-25T10:04:36.112Z,58.43
2019-06-25T10:05:35.941Z,59.25
2019-06-25T10:06:35.925Z,57.67
2019-06-25T10:07:35.887Z,57.08
2019-06-25T10:08:35.858Z,56.49
2019-06-25T10:09:35.865Z,56.56
2019-06-25T10:10:35.835Z,59.34
2019-06-25T10:11:38.942Z,58.78
2019-06-25T10:12:35.860Z,56.71
2019-06-25T10:13:35.759Z,57.11
2019-06-25T10:14:35.702Z,56.32
2019-06-25T10:15:35.684Z,55.33
2019-06-25T10:16:35.644Z,56.27
2019-06-25T10:17:35.623Z,55.68
2019-06-25T10:18:44.500Z,57.67
2019-06-25T10:19:35.568Z,58.09
2019-06-25T10:20:35.545Z,54.91
2019-06-25T10:21:35.512Z,55.43
2019-06-25T10:22:35.494Z,55.01
2019-06-25T10:23:35.494Z,57.74
2019-06-25T10:24:35.433Z,57.84
2019-06-25T10:25:35.440Z,58.85
2019-06-25T10:26:35.379Z,57.90
2019-06-25T10:27:35.366Z,56.84
2019-06-25T10:28:39.108Z,54.74
2019-06-25T10:29:35.290Z,55.43
2019-06-25T10:30:35.298Z,54.72
2019-06-25T10:31:35.327Z,55.51
2019-06-25T10:32:35.697Z,55.35
2019-06-25T10:33:35.216Z,55.68
2019-06-25T10:34:35.160Z,55.90
2019-06-25T10:35:46.875Z,55.11
2019-06-25T10:36:35.098Z,56.59
2019-06-25T10:37:35.081Z,55.77
2019-06-25T10:38:35.075Z,54.39
2019-06-25T10:39:35.049Z,56.07
2019-06-25T10:40:34.987Z,59.44
2019-06-25T10:41:34.963Z,56.32
2019-06-25T10:42:34.930Z,56.20
2019-06-25T10:43:34.903Z,56.76
2019-06-25T10:44:36.691Z,56.27
2019-06-25T10:45:34.883Z,56.66
2019-06-25T10:46:34.832Z,58.62
2019-06-25T10:47:34.822Z,55.70
2019-06-25T10:48:34.761Z,57.79
2019-06-25T10:49:34.738Z,55.97
2019-06-25T10:50:34.729Z,55.68
2019-06-25T10:51:34.681Z,55.51
2019-06-25T10:52:34.841Z,55.08
2019-06-25T10:53:34.652Z,55.48
2019-06-25T10:54:35.317Z,56.85
2019-06-25T10:55:34.567Z,56.95
2019-06-25T10:56:34.534Z,56.66
2019-06-25T10:57:34.509Z,57.18
2019-06-25T10:58:34.477Z,56.79
2019-06-25T10:59:34.478Z,54.62
2019-06-25T11:00:35.309Z,55.41
2019-06-25T11:01:37.328Z,54.62
2019-06-25T11:02:34.406Z,54.49
2019-06-25T11:03:34.342Z,55.08
2019-06-25T11:04:35.308Z,57.05
2019-06-25T11:05:34.289Z,57.62
2019-06-25T11:06:34.280Z,58.04
2019-06-25T11:07:34.233Z,55.87
2019-06-25T11:08:34.243Z,57.48
2019-06-25T11:09:34.190Z,56.69
2019-06-25T11:10:34.223Z,55.01
2019-06-25T11:11:34.129Z,55.41
2019-06-25T11:12:34.138Z,55.14
2019-06-25T11:13:34.111Z,54.25
2019-06-25T11:14:34.067Z,54.84
2019-06-25T11:15:34.079Z,54.64
2019-06-25T11:16:34.015Z,55.33
2019-06-25T11:17:34.007Z,55.51
2019-06-25T11:18:33.969Z,54.84
2019-06-25T11:19:33.934Z,54.62
2019-06-25T11:20:33.910Z,55.51
2019-06-25T11:21:33.925Z,56.42
2019-06-25T11:22:33.876Z,56.71
2019-06-25T11:23:33.847Z,55.31
2019-06-25T11:24:33.821Z,56.79
2019-06-25T11:25:33.791Z,54.62
2019-06-25T11:26:33.806Z,54.49
2019-06-25T11:27:33.757Z,56.43
2019-06-25T11:28:33.739Z,55.26
2019-06-25T11:29:33.776Z,56.73
2019-06-25T11:30:33.684Z,58.04
2019-06-25T11:31:33.694Z,57.28
2019-06-25T11:32:33.631Z,57.18
2019-06-25T11:33:33.608Z,56.27
2019-06-25T11:34:33.591Z,56.37
2019-06-25T11:35:33.567Z,56.73
2019-06-25T11:36:33.790Z,56.93
2019-06-25T11:37:33.566Z,58.30
2019-06-25T11:38:33.500Z,58.23
2019-06-25T11:39:33.511Z,56.63
2019-06-25T11:40:33.448Z,57.32
2019-06-25T11:41:33.434Z,57.64
2019-06-25T11:42:33.409Z,57.57
2019-06-25T11:43:43.773Z,56.98
2019-06-25T11:44:33.386Z,55.11
2019-06-25T11:45:33.339Z,54.62
2019-06-25T11:46:33.376Z,55.31
2019-06-25T11:47:33.295Z,55.01
2019-06-25T11:48:33.365Z,55.01
2019-06-25T11:49:33.252Z,53.74
2019-06-25T11:50:33.229Z,54.22
2019-06-25T11:51:33.201Z,56.24
2019-06-25T11:52:33.177Z,55.45
2019-06-25T11:53:33.207Z,57.45
2019-06-25T11:54:33.136Z,56.95
2019-06-25T11:55:33.121Z,56.37
2019-06-25T11:56:33.299Z,55.58
2019-06-25T11:57:33.382Z,57.57
2019-06-25T11:58:33.051Z,56.69
2019-06-25T11:59:33.093Z,55.31
2019-06-25T12:00:33.108Z,55.31
2019-06-25T12:01:33.738Z,57.87
2019-06-25T12:02:32.974Z,57.87
2019-06-25T12:03:32.963Z,58.09
2019-06-25T12:04:32.914Z,56.22
2019-06-25T12:05:32.926Z,55.73
2019-06-25T12:06:43.507Z,54.72
2019-06-25T12:07:32.901Z,55.38
2019-06-25T12:08:32.839Z,56.69
2019-06-25T12:09:32.843Z,55.31
2019-06-25T12:10:32.790Z,55.48
2019-06-25T12:11:32.794Z,56.56
2019-06-25T12:12:32.747Z,58.72
2019-06-25T12:13:32.726Z,57.05
2019-06-25T12:14:32.704Z,56.93
2019-06-25T12:15:32.675Z,56.83
2019-06-25T12:16:32.681Z,56.34
2019-06-25T12:17:32.630Z,56.73
2019-06-25T12:18:32.614Z,57.62
2019-06-25T12:19:47.566Z,57.78
2019-06-25T12:20:32.600Z,59.19
2019-06-25T12:21:32.548Z,56.83
2019-06-25T12:22:32.528Z,57.05
2019-06-25T12:23:32.506Z,58.14
2019-06-25T12:24:32.475Z,57.54
2019-06-25T12:25:32.486Z,56.43
2019-06-25T12:26:32.430Z,57.81
2019-06-25T12:27:32.420Z,58.23
2019-06-25T12:28:33.364Z,55.77
2019-06-25T12:29:32.365Z,56.16
2019-06-25T12:30:32.375Z,59.22
2019-06-25T12:31:32.327Z,56.16
2019-06-25T12:32:32.303Z,58.23
2019-06-25T12:33:32.279Z,55.38
2019-06-25T12:34:32.258Z,55.11
2019-06-25T12:35:32.262Z,56.37
2019-06-25T12:36:32.213Z,54.69
2019-06-25T12:37:32.215Z,55.45
2019-06-25T12:38:32.167Z,55.35
2019-06-25T12:39:32.151Z,55.35
2019-06-25T12:40:32.178Z,54.66
2019-06-25T12:41:32.108Z,55.18
2019-06-25T12:42:32.115Z,54.79
2019-06-25T12:43:32.055Z,56.07
2019-06-25T12:44:32.030Z,56.98
2019-06-25T12:45:33.171Z,56.39
2019-06-25T12:46:31.993Z,55.83
2019-06-25T12:47:31.978Z,55.11
2019-06-25T12:48:31.947Z,53.83
2019-06-25T12:49:31.973Z,52.85
2019-06-25T12:50:31.937Z,54.52
2019-06-25T12:51:31.918Z,53.24
2019-06-25T12:52:31.863Z,54.03